Time;durP1;ratioP1;P1;durP2;ratioP2;P2;SDS_P1;SDS_P2;PMS_P1;PMS_P2;Temp;Humidity;BMP_temperature;BMP_pressure;BME280_temperature;BME280_humidity;BME280_pressure;Samples;Min_cycle;Max_cycle;Signal;HPM_P1;HPM_P2
2022/05/07 00:01:30;;;;;;;15.27;11.65;;;;;;;13.03;69.62;102241.66;6169208;23;20017;-82
2022/05/07 00:03:56;;;;;;;13.77;12.15;;;;;;;12.98;69.34;102235.75;6167177;23;20001;-82
2022/05/07 00:06:21;;;;;;;15.33;11.80;;;;;;;12.92;69.75;102235.19;6139790;23;20021;-82
2022/05/07 00:08:46;;;;;;;14.45;12.25;;;;;;;12.89;69.45;102234.50;6166591;23;20269;-83
2022/05/07 00:11:15;;;;;;;18.95;12.43;;;;;;;12.86;69.66;102230.25;6166831;23;20033;-83
2022/05/07 00:13:42;;;;;;;16.93;12.03;;;;;;;12.85;70.40;102228.53;6166705;23;20156;-83
2022/05/07 00:18:51;;;;;;;15.55;12.45;;;;;;;12.77;70.48;102220.16;6168566;23;20024;-82
2022/05/07 00:21:17;;;;;;;19.60;11.15;;;;;;;12.80;69.74;102224.47;6168888;23;20001;-83
2022/05/07 00:23:42;;;;;;;13.88;11.95;;;;;;;12.76;70.27;102224.66;6168052;23;20001;-82
2022/05/07 00:26:08;;;;;;;17.27;11.60;;;;;;;12.78;69.98;102225.41;6169264;23;20008;-82
2022/05/07 00:28:33;;;;;;;14.80;12.02;;;;;;;12.74;70.30;102226.56;6142095;23;20006;-82
2022/05/07 00:30:58;;;;;;;14.57;12.27;;;;;;;12.70;70.49;102225.03;6168032;23;20045;-82
2022/05/07 00:33:23;;;;;;;16.25;12.52;;;;;;;12.65;70.82;102229.81;6170438;23;19990;-82
2022/05/07 00:35:49;;;;;;;18.87;13.23;;;;;;;12.63;70.67;102223.72;6169573;23;20001;-82
2022/05/07 00:38:14;;;;;;;16.77;12.93;;;;;;;12.64;70.82;102224.56;6169404;23;20332;-82
2022/05/07 00:40:39;;;;;;;15.30;12.45;;;;;;;12.60;70.75;102218.56;6171330;23;20253;-82
2022/05/07 00:43:05;;;;;;;15.50;12.50;;;;;;;12.59;70.91;102211.56;6144499;23;20005;-82
2022/05/07 00:45:30;;;;;;;24.27;13.43;;;;;;;12.54;70.86;102209.16;6170817;23;20057;-82
2022/05/07 00:47:56;;;;;;;14.52;12.85;;;;;;;12.51;71.01;102204.03;6170753;23;19997;-82
2022/05/07 00:53:05;;;;;;;17.60;13.60;;;;;;;12.49;71.15;102205.94;6172106;23;20023;-82
2022/05/07 00:55:34;;;;;;;19.25;13.10;;;;;;;12.45;71.54;102206.22;6172052;23;20002;-82
2022/05/07 00:58:00;;;;;;;18.30;13.50;;;;;;;12.47;71.48;102205.16;6170410;23;20016;-82
2022/05/07 01:00:25;;;;;;;15.18;13.05;;;;;;;12.48;71.00;102206.88;6169560;23;20006;-83
2022/05/07 01:02:51;;;;;;;17.95;13.20;;;;;;;12.46;71.69;102205.28;6170455;23;20219;-82
2022/05/07 01:05:16;;;;;;;17.30;13.02;;;;;;;12.43;71.60;102210.81;6169892;23;20002;-82
2022/05/07 01:07:43;;;;;;;14.98;12.90;;;;;;;12.44;71.84;102210.72;6169803;23;20001;-83
2022/05/07 01:10:09;;;;;;;20.95;14.30;;;;;;;12.38;72.12;102203.94;6171223;23;20002;-82
2022/05/07 01:12:35;;;;;;;21.35;14.55;;;;;;;12.36;71.42;102205.84;6144190;23;20067;-83
2022/05/07 01:15:01;;;;;;;17.15;14.05;;;;;;;12.39;72.07;102208.31;6144255;23;20048;-82
2022/05/07 01:17:26;;;;;;;16.70;14.80;;;;;;;12.33;72.36;102199.84;6170055;23;20028;-82
2022/05/07 01:19:53;;;;;;;16.77;14.98;;;;;;;12.33;72.35;102197.19;6170678;23;20266;-83
2022/05/07 01:22:20;;;;;;;17.00;14.95;;;;;;;12.28;72.97;102194.81;6171781;23;20136;-83
2022/05/07 01:24:45;;;;;;;16.20;14.60;;;;;;;12.30;72.48;102195.56;6168301;23;20065;-83
2022/05/07 01:27:11;;;;;;;18.27;14.82;;;;;;;12.26;73.06;102194.06;6167353;23;20031;-83
2022/05/07 01:29:36;;;;;;;16.38;14.20;;;;;;;12.26;72.79;102193.19;6167337;23;20008;-83
2022/05/07 01:32:01;;;;;;;17.85;14.50;;;;;;;12.25;72.82;102189.66;6167704;23;20040;-83
2022/05/07 01:34:26;;;;;;;18.20;14.32;;;;;;;12.26;72.72;102188.72;6167767;23;20064;-83
2022/05/07 01:36:55;;;;;;;16.38;14.70;;;;;;;12.23;72.48;102188.91;6168854;23;20002;-84
2022/05/07 01:39:20;;;;;;;17.70;14.23;;;;;;;12.24;72.76;102179.09;6145114;23;20005;-83
2022/05/07 01:41:45;;;;;;;16.70;14.90;;;;;;;12.16;72.87;102175.13;6169281;23;20023;-83
2022/05/07 01:44:11;;;;;;;18.92;14.63;;;;;;;12.18;73.02;102183.03;6171462;23;20021;-83
2022/05/07 01:49:20;;;;;;;18.13;15.07;;;;;;;12.18;72.72;102191.00;6171811;23;20236;-83
2022/05/07 01:51:45;;;;;;;17.35;14.82;;;;;;;12.13;73.21;102182.44;6144410;23;20037;-83
2022/05/07 01:54:10;;;;;;;19.30;14.38;;;;;;;12.14;73.05;102190.34;6171228;23;20010;-83
2022/05/07 01:56:36;;;;;;;16.55;14.85;;;;;;;12.08;73.35;102180.06;6171792;23;20486;-83
2022/05/07 01:59:01;;;;;;;17.52;14.00;;;;;;;12.07;73.31;102182.81;6178293;23;20006;-83
2022/05/07 02:01:26;;;;;;;18.42;14.80;;;;;;;12.05;73.90;102172.25;6180860;23;20000;-82
2022/05/07 02:03:52;;;;;;;17.48;14.30;;;;;;;12.06;73.32;102178.44;6181572;23;20028;-82
2022/05/07 02:06:17;;;;;;;18.45;14.65;;;;;;;12.03;73.66;102176.81;6176836;23;20020;-82
2022/05/07 02:08:43;;;;;;;17.80;14.70;;;;;;;12.02;72.68;102175.97;6172434;23;20047;-82
2022/05/07 02:11:08;;;;;;;16.45;13.50;;;;;;;11.98;73.23;102173.59;6169887;23;20008;-81
2022/05/07 02:13:34;;;;;;;15.98;13.63;;;;;;;11.99;74.26;102169.97;6169521;23;20012;-81
2022/05/07 02:15:59;;;;;;;18.50;13.88;;;;;;;11.99;74.34;102170.84;6144369;23;20017;-82
2022/05/07 02:18:24;;;;;;;16.63;14.82;;;;;;;11.97;74.47;102167.44;6171449;23;20009;-83
2022/05/07 02:20:50;;;;;;;16.35;13.95;;;;;;;11.98;74.09;102171.78;6171974;23;20008;-82
2022/05/07 02:23:21;;;;;;;18.73;13.85;;;;;;;11.96;74.92;102171.03;6168037;23;20009;-82
2022/05/07 02:25:46;;;;;;;17.20;14.40;;;;;;;11.94;74.89;102161.41;6169182;23;20009;-83
2022/05/07 02:28:11;;;;;;;18.15;14.27;;;;;;;11.92;75.13;102160.66;6173297;23;20005;-83
2022/05/07 02:30:37;;;;;;;17.10;14.55;;;;;;;11.93;74.85;102160.56;6171433;23;20012;-82
2022/05/07 02:33:02;;;;;;;16.38;14.68;;;;;;;11.90;74.70;102166.03;6172534;23;20021;-83
2022/05/07 02:35:28;;;;;;;18.48;15.07;;;;;;;11.89;74.93;102163.47;6175113;23;20009;-82
2022/05/07 02:37:54;;;;;;;18.00;14.70;;;;;;;11.85;74.73;102163.66;6147765;23;20002;-81
2022/05/07 02:40:19;;;;;;;19.83;15.23;;;;;;;11.86;74.74;102153.88;6176032;23;20006;-81
2022/05/07 02:42:44;;;;;;;18.08;14.90;;;;;;;11.87;73.79;102149.41;6149092;23;20009;-81
2022/05/07 02:45:11;;;;;;;17.38;15.52;;;;;;;11.85;74.52;102150.34;6172541;23;20009;-82
2022/05/07 02:47:39;;;;;;;18.35;14.95;;;;;;;11.89;74.46;102159.00;6147193;23;20005;-81
2022/05/07 02:50:06;;;;;;;17.17;15.32;;;;;;;11.86;73.80;102148.56;6173483;23;20009;-81
2022/05/07 02:52:34;;;;;;;21.13;15.48;;;;;;;11.87;74.27;102149.41;6171355;23;19997;-81
2022/05/07 02:55:04;;;;;;;19.05;16.05;;;;;;;11.87;74.44;102150.25;6146781;23;20002;-82
2022/05/07 02:57:29;;;;;;;;;;;;;;;11.98;72.16;102154.97;6174857;23;20009;-82
2022/05/07 02:59:54;;;;;;;20.73;17.10;;;;;;;11.88;74.36;102151.97;6173919;23;19915;-82
2022/05/07 03:02:20;;;;;;;20.17;16.85;;;;;;;11.87;74.23;102152.91;6172101;23;20005;-82
2022/05/07 03:04:47;;;;;;;22.55;19.63;;;;;;;11.86;74.06;102151.22;6171637;23;20005;-81
2022/05/07 03:07:13;;;;;;;22.98;20.25;;;;;;;11.87;74.65;102152.91;6174047;23;20083;-82
2022/05/07 03:09:38;;;;;;;24.55;20.42;;;;;;;11.83;74.31;102151.41;6174313;23;20009;-82
2022/05/07 03:12:03;;;;;;;23.85;20.52;;;;;;;11.87;74.19;102147.56;6174779;23;20390;-82
2022/05/07 03:14:29;;;;;;;25.42;20.60;;;;;;;11.88;74.41;102148.47;6148044;23;20002;-82
2022/05/07 03:16:54;;;;;;;24.73;21.00;;;;;;;11.87;74.86;102149.41;6174198;23;20010;-82
2022/05/07 03:19:20;;;;;;;23.85;20.27;;;;;;;11.87;74.90;102149.41;6148944;23;20285;-82
2022/05/07 03:21:46;;;;;;;22.77;19.75;;;;;;;11.88;74.71;102151.13;6175422;23;20001;-82
2022/05/07 03:24:12;;;;;;;23.38;19.13;;;;;;;11.88;75.03;102151.13;6149576;23;20011;-82
2022/05/07 03:26:37;;;;;;;24.50;19.47;;;;;;;11.87;74.61;102152.06;6174481;23;20428;-82
2022/05/07 03:29:02;;;;;;;26.23;20.67;;;;;;;11.84;75.02;102150.47;6174733;23;20252;-82
2022/05/07 03:31:28;;;;;;;24.63;20.40;;;;;;;11.82;75.62;102152.34;6146331;23;20088;-81
2022/05/07 03:33:53;;;;;;;24.50;20.23;;;;;;;11.83;75.56;102160.22;6174469;23;20001;-81
2022/05/07 03:36:19;;;;;;;25.23;19.80;;;;;;;11.82;75.56;102147.88;6175392;23;20137;-82
2022/05/07 03:38:45;;;;;;;23.25;20.17;;;;;;;11.82;74.95;102145.22;6175810;23;20006;-82
2022/05/07 03:41:13;;;;;;;24.10;21.27;;;;;;;11.79;74.88;102149.84;6177479;23;20010;-82
2022/05/07 03:43:39;;;;;;;22.60;19.20;;;;;;;11.81;75.42;102155.97;6172103;23;20013;-82
2022/05/07 03:46:05;;;;;;;22.35;19.48;;;;;;;11.83;74.94;102159.38;6140132;23;20008;-84
2022/05/07 03:48:30;;;;;;;23.40;20.83;;;;;;;11.80;75.60;102157.75;6165136;23;20005;-83
2022/05/07 03:50:56;;;;;;;23.63;20.40;;;;;;;11.79;75.57;102161.38;6164237;23;20006;-84
2022/05/07 03:53:30;;;;;;;22.52;20.13;;;;;;;11.78;75.96;102166.78;6164747;23;20354;-84
2022/05/07 03:56:06;;;;;;;23.27;20.83;;;;;;;11.73;76.07;102164.41;6162169;23;20008;-83
2022/05/07 03:58:33;;;;;;;22.38;18.83;;;;;;;11.69;75.11;102172.66;6168514;23;20014;-82
2022/05/07 04:00:59;;;;;;;23.30;20.80;;;;;;;11.65;75.73;102177.31;6169119;23;20001;-82
2022/05/07 04:03:25;;;;;;;25.25;20.52;;;;;;;11.64;76.15;102172.91;6168103;23;20006;-82
2022/05/07 04:05:50;;;;;;;23.27;20.58;;;;;;;11.64;75.82;102175.59;6169215;23;20040;-82
2022/05/07 04:08:16;;;;;;;26.13;18.98;;;;;;;11.59;75.72;102175.88;6169767;23;20014;-82
2022/05/07 04:10:45;;;;;;;25.55;19.98;;;;;;;11.56;76.03;102173.41;6169309;23;20016;-82
2022/05/07 04:13:12;;;;;;;22.10;18.58;;;;;;;11.57;76.25;102172.44;6171164;23;20025;-82
2022/05/07 04:15:37;;;;;;;23.80;19.35;;;;;;;11.57;76.01;102175.09;6171377;23;20001;-82
2022/05/07 04:18:07;;;;;;;22.42;19.58;;;;;;;11.54;76.52;102183.28;6177460;23;20057;-81
2022/05/07 04:20:33;;;;;;;22.05;19.80;;;;;;;11.54;76.45;102179.75;6176934;23;20037;-81
2022/05/07 04:22:58;;;;;;;23.27;20.38;;;;;;;11.52;76.76;102174.50;6169153;23;20060;-82
2022/05/07 04:25:24;;;;;;;24.85;19.73;;;;;;;11.55;76.01;102176.16;6169373;23;20009;-82
2022/05/07 04:27:49;;;;;;;22.05;18.70;;;;;;;11.55;75.97;102179.66;6170169;23;20008;-82
2022/05/07 04:30:14;;;;;;;26.45;20.02;;;;;;;11.56;76.47;102186.72;6143642;23;20008;-82
2022/05/07 04:32:39;;;;;;;25.33;20.38;;;;;;;11.56;76.46;102177.88;6169874;23;20450;-82
2022/05/07 04:35:06;;;;;;;23.63;20.20;;;;;;;11.57;76.44;102172.44;6170833;23;20005;-82
2022/05/07 04:37:34;;;;;;;23.85;21.13;;;;;;;11.59;76.39;102178.53;6170872;23;20265;-82
2022/05/07 04:40:00;;;;;;;24.27;21.00;;;;;;;11.62;76.94;102175.72;6171257;23;20309;-82
2022/05/07 04:42:25;;;;;;;23.83;20.33;;;;;;;11.64;75.92;102179.13;6142952;23;20009;-82
2022/05/07 04:44:50;;;;;;;24.38;20.73;;;;;;;11.65;76.29;102182.63;6169337;23;20009;-82
2022/05/07 04:47:16;;;;;;;26.45;21.20;;;;;;;11.66;76.55;102187.88;6143080;23;20005;-82
2022/05/07 04:49:41;;;;;;;26.17;19.77;;;;;;;11.66;76.77;102190.53;6143782;23;20009;-82
2022/05/07 04:52:06;;;;;;;23.25;19.85;;;;;;;11.71;76.85;102192.03;6170297;23;20006;-82
2022/05/07 04:54:32;;;;;;;25.38;20.73;;;;;;;11.72;77.13;102188.44;6170623;23;20376;-82
2022/05/07 04:56:58;;;;;;;23.88;19.77;;;;;;;11.76;76.94;102196.16;6170874;23;20005;-82
2022/05/07 04:59:24;;;;;;;24.35;21.17;;;;;;;11.77;76.75;102191.69;6171108;23;20068;-82
2022/05/07 05:01:49;;;;;;;23.92;21.40;;;;;;;11.80;76.45;102195.00;6169299;23;20124;-82
2022/05/07 05:04:15;;;;;;;26.95;22.50;;;;;;;11.81;77.28;102196.75;6169956;23;20021;-82
2022/05/07 05:06:45;;;;;;;27.65;22.42;;;;;;;11.84;77.43;102203.69;6171948;23;20021;-82
2022/05/07 05:09:12;;;;;;;27.45;23.13;;;;;;;11.84;76.85;102203.69;6169015;23;20020;-83
2022/05/07 05:11:38;;;;;;;27.27;22.73;;;;;;;11.87;77.29;102207.97;6142597;23;20025;-83
2022/05/07 05:16:48;;;;;;;31.17;25.17;;;;;;;11.91;76.53;102214.84;6167238;23;20068;-83
2022/05/07 05:19:13;;;;;;;31.48;24.67;;;;;;;11.94;76.65;102217.31;6170198;23;20374;-82
2022/05/07 05:21:38;;;;;;;32.38;25.10;;;;;;;11.96;76.73;102224.28;6167077;23;20427;-82
2022/05/07 05:24:04;;;;;;;31.08;24.95;;;;;;;11.98;76.00;102227.69;6168168;23;20006;-82
2022/05/07 05:26:29;;;;;;;29.83;25.98;;;;;;;12.00;76.18;102230.25;6169206;23;20011;-82
2022/05/07 05:28:55;;;;;;;34.27;26.30;;;;;;;12.05;76.20;102232.66;6167591;23;20006;-82
2022/05/07 05:31:23;;;;;;;29.65;26.42;;;;;;;12.03;76.02;102232.75;6168105;23;20268;-81
2022/05/07 05:33:48;;;;;;;30.43;27.23;;;;;;;12.06;76.36;102235.22;6168059;23;20009;-82
2022/05/07 05:36:14;;;;;;;30.38;25.88;;;;;;;12.09;77.12;102231.50;6169622;23;20013;-82
2022/05/07 05:38:39;;;;;;;29.17;26.13;;;;;;;12.15;76.28;102233.81;6167928;23;20033;-82
2022/05/07 05:41:05;;;;;;;29.08;26.08;;;;;;;12.18;75.97;102233.63;6167266;23;20087;-81
2022/05/07 05:43:31;;;;;;;31.97;27.63;;;;;;;12.25;76.28;102229.63;6167952;23;20009;-81
2022/05/07 05:45:56;;;;;;;31.02;27.65;;;;;;;12.29;76.79;102238.28;6169144;23;20264;-82
2022/05/07 05:48:24;;;;;;;29.85;26.23;;;;;;;12.39;76.47;102242.97;6168452;23;20005;-81
2022/05/07 05:50:49;;;;;;;38.15;27.95;;;;;;;12.49;76.39;102234.38;6168285;23;20327;-82
2022/05/07 05:53:14;;;;;;;32.10;28.70;;;;;;;12.55;77.04;102239.34;6168077;23;20006;-82
2022/05/07 05:55:39;;;;;;;32.58;27.75;;;;;;;12.68;77.03;102242.94;6170031;23;20268;-82
2022/05/07 05:58:05;;;;;;;32.35;28.55;;;;;;;12.81;76.17;102240.34;6147473;23;20016;-81
2022/05/07 06:00:30;;;;;;;32.28;28.95;;;;;;;12.92;76.06;102239.66;6166951;23;20006;-80
2022/05/07 06:02:56;;;;;;;31.65;28.25;;;;;;;13.04;76.10;102238.00;6179127;23;19985;-80
2022/05/07 06:05:21;;;;;;;31.40;28.00;;;;;;;13.14;75.24;102233.81;6178571;23;20001;-81
2022/05/07 06:07:46;;;;;;;29.60;26.50;;;;;;;13.21;76.06;102231.59;6177568;23;20005;-81
2022/05/07 06:10:13;;;;;;;34.40;27.13;;;;;;;13.31;74.86;102235.38;6173804;23;20012;-81
2022/05/07 06:12:38;;;;;;;33.25;25.83;;;;;;;13.41;75.17;102236.50;6172167;23;19990;-80
2022/05/07 06:15:05;;;;;;;29.95;26.30;;;;;;;13.51;74.78;102242.94;6174398;23;20006;-80
2022/05/07 06:17:32;;;;;;;30.73;25.80;;;;;;;13.64;74.06;102244.78;6180936;23;19990;-81
2022/05/07 06:19:57;;;;;;;29.17;24.48;;;;;;;13.75;73.95;102234.22;6127706;23;20009;-81
2022/05/07 06:22:23;;;;;;;28.53;23.27;;;;;;;13.90;72.72;102242.16;6181832;23;19996;-81
2022/05/07 06:27:37;;;;;;;30.58;22.48;;;;;;;14.16;71.56;102246.56;6182803;23;20118;-81
2022/05/07 06:30:05;;;;;;;30.13;23.02;;;;;;;14.31;70.60;102246.47;6184150;23;19997;-81
2022/05/07 06:32:35;;;;;;;27.08;23.40;;;;;;;14.43;70.59;102248.25;6184335;23;19989;-81
2022/05/07 06:35:05;;;;;;;25.50;20.83;;;;;;;14.58;69.40;102248.97;6184980;23;20025;-81
2022/05/07 06:37:32;;;;;;;26.83;21.80;;;;;;;14.73;69.19;102244.41;6185164;23;20004;-81
2022/05/07 06:39:58;;;;;;;29.17;21.90;;;;;;;14.93;68.17;102235.75;6185199;23;20049;-81
2022/05/07 06:42:24;;;;;;;23.80;20.45;;;;;;;15.12;68.46;102251.34;6185454;23;20005;-81
2022/05/07 06:44:49;;;;;;;30.00;22.17;;;;;;;15.29;68.02;102247.41;6184520;23;20009;-82
2022/05/07 06:47:16;;;;;;;27.20;21.98;;;;;;;15.42;67.41;102250.03;6184714;23;20017;-82
2022/05/07 06:49:43;;;;;;;32.20;22.65;;;;;;;15.59;66.91;102245.22;6184177;23;20001;-81
2022/05/07 06:52:08;;;;;;;31.25;21.42;;;;;;;15.80;65.73;102248.97;6184124;23;19990;-82
2022/05/07 06:54:33;;;;;;;31.65;22.02;;;;;;;15.94;65.83;102249.72;6177971;23;20064;-82
2022/05/07 06:56:59;;;;;;;29.35;21.35;;;;;;;16.13;65.43;102249.19;6173207;23;20004;-83
2022/05/07 06:59:24;;;;;;;26.58;21.42;;;;;;;16.26;65.11;102245.41;6174013;23;20032;-82
2022/05/07 07:01:49;;;;;;;27.27;21.33;;;;;;;16.44;64.00;102245.78;6180328;23;20053;-82
2022/05/07 07:04:15;;;;;;;26.60;21.08;;;;;;;16.64;63.75;102246.03;6147862;23;20013;-82
2022/05/07 07:06:45;;;;;;;27.80;20.55;;;;;;;16.88;63.28;102245.06;6175707;23;20156;-82
2022/05/07 07:09:11;;;;;;;29.90;20.73;;;;;;;17.06;61.75;102246.25;6171979;23;20017;-82
2022/05/07 07:11:36;;;;;;;27.08;20.58;;;;;;;17.25;61.78;102253.63;6176751;23;20470;-82
2022/05/07 07:14:04;;;;;;;23.30;18.88;;;;;;;17.44;61.54;102247.59;6179411;23;20005;-82
2022/05/07 07:16:33;;;;;;;28.45;20.65;;;;;;;17.65;60.63;102244.06;6176774;23;20006;-82
2022/05/07 07:18:58;;;;;;;29.95;19.67;;;;;;;17.84;60.23;102257.66;6153708;23;20005;-82
2022/05/07 07:21:23;;;;;;;29.10;20.15;;;;;;;18.07;59.53;102246.81;6183169;23;20001;-82
2022/05/07 07:23:49;;;;;;;28.65;19.88;;;;;;;18.30;57.93;102250.16;6183177;23;19998;-82
2022/05/07 07:26:14;;;;;;;28.35;18.85;;;;;;;18.59;57.02;102241.38;6158123;23;20013;-82
2022/05/07 07:28:40;;;;;;;27.00;19.70;;;;;;;18.82;57.36;102240.19;6179338;23;20018;-82
2022/05/07 07:31:08;;;;;;;27.30;20.52;;;;;;;18.96;56.08;102240.81;6180408;23;20041;-83
2022/05/07 07:33:34;;;;;;;27.02;19.55;;;;;;;19.34;55.67;102241.84;6181852;23;20061;-82
2022/05/07 07:36:01;;;;;;;24.80;17.67;;;;;;;19.46;53.53;102239.88;6179768;23;20021;-81
2022/05/07 07:38:27;;;;;;;30.83;18.80;;;;;;;19.69;53.15;102243.97;6182768;23;20013;-81
2022/05/07 07:40:53;;;;;;;25.40;18.80;;;;;;;19.88;52.54;102236.88;6178191;23;20016;-80
2022/05/07 07:43:20;;;;;;;25.27;19.08;;;;;;;20.10;52.04;102241.06;6183275;23;20058;-80
2022/05/07 07:48:31;;;;;;;27.27;18.42;;;;;;;20.64;50.28;102242.19;6163506;23;20033;-80
2022/05/07 07:50:57;;;;;;;22.60;17.98;;;;;;;20.85;49.26;102243.75;6151502;23;20002;-80
2022/05/07 07:53:24;;;;;;;25.40;18.05;;;;;;;20.98;48.57;102236.16;6166144;23;20033;-83
2022/05/07 07:55:49;;;;;;;26.63;18.02;;;;;;;21.23;48.35;102239.97;6176499;23;19997;-82
2022/05/07 07:58:15;;;;;;;23.02;17.45;;;;;;;21.52;46.95;102236.22;6183700;23;20045;-83
2022/05/07 08:00:42;;;;;;;26.70;17.48;;;;;;;21.62;46.65;102230.72;6183898;23;19997;-82
2022/05/07 08:03:13;;;;;;;19.13;16.23;;;;;;;21.96;45.50;102241.59;6181240;23;19989;-83
2022/05/07 08:05:41;;;;;;;21.60;15.45;;;;;;;22.01;43.80;102235.72;6179459;23;20006;-81
2022/05/07 08:13:46;;;;;;;23.90;15.23;;;;;;;22.63;44.43;102232.88;6183990;23;20061;-81
2022/05/07 08:16:13;;;;;;;23.10;16.00;;;;;;;22.69;42.55;102239.47;6184631;23;20002;-82
2022/05/07 08:18:44;;;;;;;21.27;15.82;;;;;;;22.88;42.72;102228.38;6184601;23;19989;-83
2022/05/07 08:21:19;;;;;;;22.73;15.65;;;;;;;22.87;42.77;102231.25;6184498;23;20009;-82
2022/05/07 08:23:44;;;;;;;22.80;16.33;;;;;;;23.02;41.79;102226.88;6159698;23;19990;-82
2022/05/07 08:26:13;;;;;;;20.20;14.73;;;;;;;22.95;42.48;102231.28;6184751;23;20012;-82
2022/05/07 08:28:41;;;;;;;21.70;15.23;;;;;;;22.97;41.31;102244.66;6184832;23;19989;-81
2022/05/07 08:31:08;;;;;;;22.73;15.55;;;;;;;23.03;41.49;102239.41;6159477;23;20029;-83
2022/05/07 08:33:33;;;;;;;21.00;15.68;;;;;;;23.11;41.51;102232.34;6184649;23;20041;-83
2022/05/07 08:36:01;;;;;;;20.15;15.38;;;;;;;23.22;40.15;102242.88;6184567;23;20004;-82
2022/05/07 08:38:30;;;;;;;25.08;15.20;;;;;;;23.23;40.22;102241.84;6166635;23;20005;-86
2022/05/07 08:40:58;;;;;;;21.30;15.68;;;;;;;23.40;39.59;102246.28;6152510;23;20316;-81
2022/05/07 08:43:23;;;;;;;21.03;14.70;;;;;;;23.70;40.90;102243.91;6141263;23;20015;-82
2022/05/07 08:45:49;;;;;;;22.77;15.90;;;;;;;23.61;40.48;102242.19;6163090;23;20021;-82
2022/05/07 08:48:14;;;;;;;22.92;15.20;;;;;;;23.67;40.30;102243.41;6174299;23;20324;-81
2022/05/07 08:50:40;;;;;;;22.20;14.55;;;;;;;23.88;38.64;102245.59;6175602;23;20008;-82
2022/05/07 08:53:06;;;;;;;19.67;14.68;;;;;;;23.92;39.13;102236.13;6173474;23;20002;-83
2022/05/07 08:55:32;;;;;;;20.67;14.85;;;;;;;24.09;39.33;102236.94;6146867;23;20021;-81
2022/05/07 08:57:58;;;;;;;21.37;14.17;;;;;;;24.41;37.82;102238.69;6171952;23;20052;-83
2022/05/07 09:00:25;;;;;;;22.60;15.20;;;;;;;24.67;37.93;102234.88;6173709;23;20579;-83
2022/05/07 09:02:57;;;;;;;21.23;15.10;;;;;;;24.89;37.81;102236.78;6146837;23;20006;-83
2022/05/07 09:05:35;;;;;;;20.95;15.50;;;;;;;25.10;37.36;102235.31;6173939;23;20013;-83
2022/05/07 09:08:02;;;;;;;20.13;15.65;;;;;;;25.28;36.23;102232.31;6145060;23;20018;-83
2022/05/07 09:10:29;;;;;;;22.58;15.40;;;;;;;25.61;36.51;102221.16;6167969;23;20009;-83
2022/05/07 09:13:12;;;;;;;23.15;15.82;;;;;;;25.71;35.61;102227.19;6151584;23;20020;-84
2022/05/07 09:15:58;;;;;;;22.23;14.82;;;;;;;25.87;38.14;102231.66;6168135;23;20060;-82
2022/05/07 09:18:25;;;;;;;25.35;16.25;;;;;;;25.74;35.09;102232.28;6162359;23;20083;-82
2022/05/07 09:21:16;;;;;;;20.35;14.35;;;;;;;25.99;36.24;102230.19;6158770;23;20413;-83
2022/05/07 09:24:01;;;;;;;21.77;14.60;;;;;;;26.26;34.45;102227.84;6132769;23;20009;-83
2022/05/07 09:26:35;;;;;;;21.63;14.95;;;;;;;26.53;35.02;102222.75;6159678;23;20056;-82
2022/05/07 09:29:01;;;;;;;22.45;17.13;;;;;;;26.59;34.45;102227.44;6137213;23;20005;-82
2022/05/07 09:31:31;;;;;;;22.77;17.77;;;;;;;26.40;34.35;102227.00;6165707;23;20012;-82
2022/05/07 09:36:43;;;;;;;28.02;17.17;;;;;;;26.38;33.67;102226.34;6165079;23;20083;-82
2022/05/07 09:39:12;;;;;;;23.20;18.50;;;;;;;26.36;34.51;102228.41;6164185;23;20014;-83
2022/05/07 09:41:38;;;;;;;22.92;16.90;;;;;;;26.56;34.87;102228.69;6159450;23;20008;-82
2022/05/07 09:44:11;;;;;;;25.30;19.10;;;;;;;26.62;34.76;102226.22;6159170;23;20006;-82
2022/05/07 09:46:40;;;;;;;29.30;19.65;;;;;;;26.53;32.75;102225.47;6158039;23;20502;-82
2022/05/07 09:49:06;;;;;;;24.63;19.70;;;;;;;26.81;34.03;102228.34;6133806;23;20014;-83
2022/05/07 09:51:33;;;;;;;26.60;19.58;;;;;;;26.70;34.17;102229.72;6164294;23;20013;-82
2022/05/07 09:59:27;;;;;;;22.63;18.05;;;;;;;27.47;32.09;102220.03;6161739;23;20016;-82
2022/05/07 10:02:19;;;;;;;34.58;18.27;;;;;;;27.77;34.11;102221.75;6164653;23;20025;-83
2022/05/07 10:04:57;;;;;;;19.90;16.63;;;;;;;27.67;32.13;102214.72;6143278;23;20359;-83
2022/05/07 10:07:43;;;;;;;20.13;16.23;;;;;;;27.65;32.45;102214.09;6163333;23;20017;-83
2022/05/07 10:10:24;;;;;;;21.77;14.82;;;;;;;27.92;32.27;102214.28;6160223;23;20084;-83
2022/05/07 10:12:51;;;;;;;19.55;14.48;;;;;;;28.15;29.90;102215.94;6132642;23;20017;-82
2022/05/07 10:15:23;;;;;;;21.75;15.00;;;;;;;28.37;31.09;102216.66;6164201;23;20025;-82
2022/05/07 10:18:07;;;;;;;20.38;14.93;;;;;;;28.83;31.27;102206.97;6160921;23;20435;-81
2022/05/07 10:20:39;;;;;;;18.95;15.15;;;;;;;28.75;28.67;102208.00;6164890;23;20010;-82
2022/05/07 10:23:09;;;;;;;19.17;15.57;;;;;;;28.88;28.70;102207.19;6162673;23;20009;-83
2022/05/07 10:25:36;;;;;;;24.42;15.02;;;;;;;28.99;29.12;102209.31;6164591;23;20006;-83
2022/05/07 10:28:15;;;;;;;17.38;12.52;;;;;;;29.12;29.85;102205.78;6170488;23;20001;-80
2022/05/07 10:30:48;;;;;;;17.25;12.95;;;;;;;29.13;28.15;102196.53;6163830;23;20045;-82
2022/05/07 10:33:15;;;;;;;18.65;11.57;;;;;;;29.09;27.20;102195.25;6166890;23;20002;-81
2022/05/07 10:35:46;;;;;;;15.27;11.23;;;;;;;29.35;28.24;102191.72;6169160;23;20025;-81
2022/05/07 10:38:23;;;;;;;17.67;12.60;;;;;;;29.46;29.51;102196.56;6165219;23;20330;-82
2022/05/07 10:41:02;;;;;;;15.65;9.75;;;;;;;29.64;28.11;102197.81;6157778;23;20006;-82
2022/05/07 10:43:38;;;;;;;14.00;8.95;;;;;;;29.78;27.56;102194.03;6133332;23;20013;-81
2022/05/07 10:46:07;;;;;;;13.45;9.05;;;;;;;29.67;26.00;102200.97;6161035;23;20017;-82
2022/05/07 10:48:47;;;;;;;12.90;8.50;;;;;;;30.13;27.59;102201.97;6137491;23;20081;-82
2022/05/07 10:51:18;;;;;;;14.23;10.55;;;;;;;30.07;26.62;102192.69;6165164;23;20411;-81
2022/05/07 10:53:43;;;;;;;16.20;9.38;;;;;;;30.32;27.02;102194.72;6162897;23;20012;-81
2022/05/07 10:56:17;;;;;;;16.75;10.20;;;;;;;30.26;28.12;102190.97;6158264;23;20009;-81
2022/05/07 10:58:47;;;;;;;17.17;10.75;;;;;;;29.63;27.00;102188.75;6161332;23;20009;-82
2022/05/07 11:01:13;;;;;;;15.43;10.73;;;;;;;29.62;27.54;102181.59;6162715;23;20072;-81
2022/05/07 11:03:39;;;;;;;17.13;9.65;;;;;;;29.95;27.57;102190.84;6160405;23;20002;-81
2022/05/07 11:06:04;;;;;;;13.43;8.77;;;;;;;30.11;26.84;102197.75;6162736;23;20446;-82
2022/05/07 11:08:30;;;;;;;14.60;8.95;;;;;;;30.15;26.41;102188.88;6168914;23;20016;-83
2022/05/07 11:11:11;;;;;;;13.57;8.77;;;;;;;30.25;28.39;102191.16;6162102;23;20396;-83
2022/05/07 11:13:52;;;;;;;18.23;9.10;;;;;;;30.12;28.14;102191.22;6160433;23;20005;-83
2022/05/07 11:16:19;;;;;;;14.38;9.10;;;;;;;29.98;26.60;102185.78;6139260;23;20013;-82
2022/05/07 11:18:52;;;;;;;12.98;9.75;;;;;;;29.33;27.94;102186.47;6137109;23;20068;-82
2022/05/07 11:21:22;;;;;;;14.02;8.88;;;;;;;29.03;28.55;102185.13;6163416;23;20001;-84
2022/05/07 19:19:59;;;;;;;13.48;9.90;;;;;;;15.27;71.86;102310.06;6159024;23;20036;-81
2022/05/07 19:22:25;;;;;;;11.80;9.07;;;;;;;15.22;73.29;102314.88;6200123;22;20013;-84
2022/05/07 19:24:50;;;;;;;12.88;9.63;;;;;;;15.15;73.48;102319.84;6211074;22;20249;-82
2022/05/07 19:27:15;;;;;;;16.35;10.02;;;;;;;15.08;72.36;102321.25;6188987;23;20005;-83
2022/05/07 19:29:40;;;;;;;15.97;9.40;;;;;;;15.04;72.46;102328.66;6189089;23;20026;-83
2022/05/07 19:32:06;;;;;;;13.93;10.13;;;;;;;14.99;73.77;102333.47;6189270;23;20256;-84
2022/05/07 19:34:32;;;;;;;14.63;9.98;;;;;;;14.93;73.69;102331.22;6161523;23;20012;-83
2022/05/07 19:36:57;;;;;;;11.68;10.15;;;;;;;14.88;74.34;102334.22;6187570;23;20005;-83